Terminal Aerodrome Forecast
Issued by NWS

Home | Current Version | Previous Version | Text Only | Print | Product List | Glossary Off
Versions: 1 2 3 4 5 6 7 8 9 10 11 12 13 14 15 16 17 18 19 20 21 22 23 24 25 26 27 28 29 30 31 32 33 34 35 36

000
FTUS43 KLOT 272022 AAB
TAFGYY
TAF AMD
KGYY 272022Z 2720/2818 06013G19KT P6SM VCSH OVC020
     FM272100 06016G22KT 4SM SHRA SCT020 OVC025
      TEMPO 2722/2724 2SM SHRA SCT020 OVC035
     FM280200 08015KT 6SM -SHRA VCTS BKN020CB
     FM280900 07015KT P6SM VCSH SCT009 OVC012
     FM281600 06016G23KT P6SM VCSH OVC018=

USA.gov is the U.S. government's official web portal to all federal, state and local government web resources and services.